Whyalla, Australia
Current Conditions -  °F | °C
As of 10:00 AM on Wednesday 22 Oct 2014 (Local Time) from YWHA Reporting Station
Clear Clear  
Wind Chill: 75°   Ceiling: Unl
Heat Index: 75°   Visibility: 6mi
Dew Point: 57°   Wind: 14mph
Humidity: 53%   Direction: 190°S
Pressure: 30.06"   Gusts: NA
Location:  33.03°S, 137.59°E
Report Text: YWHA 220000Z AUTO 19012KT 9999 // NCD 24/14 Q1018
Loading
Personal Weather Stations






























Interactive Weather Map
Tropical Storm Tracking
New forecast layout! Learn more

10-Day Weather Forecast

Advertisements
Track Severe Weather on mobile